createdAt,value
2019-05-21T00:01:04.743Z,63.73
2019-05-21T00:03:34.180Z,63.96
2019-05-21T00:06:04.153Z,63.91
2019-05-21T00:08:33.843Z,64.06
2019-05-21T00:11:03.274Z,63.69
2019-05-21T00:13:32.886Z,63.41
2019-05-21T00:16:02.373Z,63.84
2019-05-21T00:18:31.831Z,64.51
2019-05-21T00:21:01.360Z,65.06
2019-05-21T00:23:31.016Z,65.25
2019-05-21T00:26:00.696Z,65.43
2019-05-21T00:28:40.699Z,65.32
2019-05-21T00:31:46.162Z,65.08
2019-05-21T00:34:51.298Z,64.54
2019-05-21T00:37:56.702Z,64.18
2019-05-21T00:41:01.667Z,64.42
2019-05-21T00:43:52.439Z,64.89
2019-05-21T00:46:21.906Z,65.42
2019-05-21T00:48:51.312Z,65.83
2019-05-21T00:51:20.787Z,66.05
2019-05-21T00:53:50.561Z,64.87
2019-05-21T00:56:20.290Z,65.66
2019-05-21T00:58:49.873Z,66.45
2019-05-21T01:01:19.550Z,66.80
2019-05-21T01:03:49.370Z,66.09
2019-05-21T01:06:18.793Z,66.62
2019-05-21T01:08:48.258Z,66.21
2019-05-21T01:11:17.732Z,66.12
2019-05-21T01:13:47.212Z,65.92
2019-05-21T01:16:16.884Z,66.03
2019-05-21T01:18:46.547Z,66.00
2019-05-21T01:21:15.988Z,65.75
2019-05-21T01:23:45.597Z,65.86
2019-05-21T01:26:15.120Z,66.32
2019-05-21T01:28:44.757Z,66.84
2019-05-21T01:31:14.404Z,66.50
2019-05-21T01:33:44.000Z,67.16
2019-05-21T01:36:13.804Z,67.07
2019-05-21T01:38:43.606Z,66.14
2019-05-21T01:41:13.053Z,66.71
2019-05-21T01:43:42.545Z,66.51
2019-05-21T01:46:12.174Z,67.13
2019-05-21T01:48:41.884Z,67.51
2019-05-21T01:51:11.807Z,68.18
2019-05-21T01:53:41.387Z,68.70
2019-05-21T01:56:10.919Z,69.04
2019-05-21T01:58:40.497Z,69.27
2019-05-21T02:01:10.109Z,69.11
2019-05-21T02:03:39.596Z,69.34
2019-05-21T02:06:09.409Z,69.61
2019-05-21T02:08:39.057Z,69.86
2019-05-21T02:11:08.661Z,69.76
2019-05-21T02:13:38.411Z,69.75
2019-05-21T02:16:08.153Z,69.80
2019-05-21T02:18:37.633Z,69.79
2019-05-21T02:21:07.398Z,68.68
2019-05-21T02:23:36.979Z,68.45
2019-05-21T02:26:06.525Z,68.59
2019-05-21T02:28:36.064Z,69.11
2019-05-21T02:31:05.578Z,69.63
2019-05-21T02:33:35.469Z,70.29
2019-05-21T02:36:05.314Z,70.99
2019-05-21T02:38:35.188Z,71.38
2019-05-21T02:41:04.825Z,70.35
2019-05-21T02:43:34.568Z,70.70
2019-05-21T02:46:04.269Z,70.77
2019-05-21T02:48:33.783Z,70.73
2019-05-21T02:51:03.255Z,70.29
2019-05-21T02:53:34.504Z,70.78
2019-05-21T02:56:04.330Z,71.19
2019-05-21T02:58:34.139Z,71.69
2019-05-21T03:01:18.883Z,71.47
2019-05-21T03:03:48.484Z,71.45
2019-05-21T03:06:18.213Z,72.01
2019-05-21T03:08:47.700Z,72.29
2019-05-21T03:11:18.023Z,72.47
2019-05-21T03:13:47.533Z,72.36
2019-05-21T03:16:17.254Z,71.60
2019-05-21T03:18:46.951Z,72.14
2019-05-21T03:21:16.677Z,72.02
2019-05-21T03:23:46.390Z,71.56
2019-05-21T03:26:15.978Z,72.30
2019-05-21T03:28:45.454Z,72.17
2019-05-21T03:31:15.003Z,71.95
2019-05-21T03:33:44.486Z,72.22
2019-05-21T03:36:31.545Z,72.04
2019-05-21T03:38:45.309Z,71.66
2019-05-21T03:41:14.846Z,71.92
2019-05-21T03:43:44.676Z,71.89
2019-05-21T03:46:14.353Z,72.41
2019-05-21T03:48:43.771Z,72.54
2019-05-21T03:51:13.213Z,72.17
2019-05-21T03:53:43.179Z,70.73
2019-05-21T03:56:12.991Z,70.91
2019-05-21T03:58:42.821Z,71.48
2019-05-21T04:01:12.394Z,70.34
2019-05-21T04:03:41.919Z,70.95
2019-05-21T04:06:11.351Z,71.06
2019-05-21T04:08:40.967Z,71.08
2019-05-21T04:11:10.404Z,71.15
2019-05-21T04:13:39.828Z,70.33
2019-05-21T04:16:15.477Z,71.03
2019-05-21T04:18:52.260Z,70.35
2019-05-21T04:21:21.879Z,69.55
2019-05-21T04:23:51.342Z,68.52
2019-05-21T04:26:21.037Z,68.71
2019-05-21T04:28:50.904Z,68.92
2019-05-21T04:31:20.483Z,68.99
2019-05-21T04:33:50.001Z,69.04
2019-05-21T04:36:19.626Z,68.46
2019-05-21T04:38:49.329Z,67.76
2019-05-21T04:41:19.110Z,66.80
2019-05-21T04:43:48.644Z,65.47
2019-05-21T04:46:18.360Z,66.04
2019-05-21T04:48:47.991Z,65.93
2019-05-21T04:51:17.446Z,66.33
2019-05-21T04:53:47.024Z,66.07
2019-05-21T04:56:16.730Z,65.49
2019-05-21T04:58:46.482Z,63.69
2019-05-21T05:01:16.203Z,63.13
2019-05-21T05:03:45.579Z,63.83
2019-05-21T05:06:15.139Z,64.02
2019-05-21T05:08:45.071Z,63.75
2019-05-21T05:11:14.496Z,63.16
2019-05-21T05:13:44.003Z,62.89
2019-05-21T05:16:13.927Z,62.43
2019-05-21T05:18:43.701Z,62.53
2019-05-21T05:21:13.153Z,62.05
2019-05-21T05:23:42.957Z,61.87
2019-05-21T05:26:12.760Z,61.81
2019-05-21T05:28:42.359Z,61.56
2019-05-21T05:31:15.078Z,61.78
2019-05-21T05:33:43.272Z,61.87
2019-05-21T05:36:12.724Z,60.12
2019-05-21T05:38:42.316Z,59.43
2019-05-21T05:41:12.045Z,59.46
2019-05-21T05:43:41.813Z,58.68
2019-05-21T05:46:11.425Z,58.86
2019-05-21T05:48:47.785Z,59.90
2019-05-21T05:51:17.442Z,59.43
2019-05-21T05:53:59.529Z,59.85
2019-05-21T05:56:30.024Z,58.25
2019-05-21T05:59:00.080Z,57.22
2019-05-21T06:01:31.689Z,58.07
2019-05-21T06:04:01.121Z,57.80
2019-05-21T06:06:30.968Z,57.25
2019-05-21T06:09:00.752Z,57.18
2019-05-21T06:11:30.550Z,56.12
2019-05-21T06:14:00.052Z,55.44
2019-05-21T06:16:29.503Z,55.76
2019-05-21T06:18:59.178Z,56.57
2019-05-21T06:21:28.824Z,56.83
2019-05-21T06:23:58.295Z,56.31
2019-05-21T06:26:27.893Z,56.17
2019-05-21T06:28:57.385Z,55.59
2019-05-21T06:31:27.287Z,55.30
2019-05-21T06:33:56.811Z,55.25
2019-05-21T06:36:26.640Z,55.14
2019-05-21T06:38:56.265Z,54.44
2019-05-21T06:41:25.701Z,54.35
2019-05-21T06:43:55.207Z,52.96
2019-05-21T06:46:24.846Z,53.29
2019-05-21T06:48:54.321Z,53.60
2019-05-21T06:51:23.761Z,53.50
2019-05-21T06:53:53.573Z,53.05
2019-05-21T06:56:23.266Z,52.29
2019-05-21T06:58:52.672Z,51.04
2019-05-21T07:01:28.240Z,51.23
2019-05-21T07:03:53.738Z,51.63
2019-05-21T07:06:23.164Z,51.13
2019-05-21T07:08:52.733Z,51.52
2019-05-21T07:11:22.277Z,50.96
2019-05-21T07:13:51.992Z,50.94
2019-05-21T07:16:21.659Z,51.19
2019-05-21T07:18:51.335Z,51.12
2019-05-21T07:21:21.112Z,50.78
2019-05-21T07:23:50.481Z,49.80
2019-05-21T07:26:20.267Z,49.36
2019-05-21T07:28:49.851Z,49.24
2019-05-21T07:31:19.277Z,48.52
2019-05-21T07:33:48.879Z,46.76
2019-05-21T07:36:18.355Z,48.26
2019-05-21T07:38:53.420Z,48.18
2019-05-21T07:41:20.409Z,48.07
2019-05-21T07:43:49.926Z,47.71
2019-05-21T07:46:19.506Z,46.51
2019-05-21T07:48:48.993Z,46.03
2019-05-21T07:51:18.807Z,45.98
2019-05-21T07:53:48.479Z,46.52
2019-05-21T07:56:17.897Z,44.79
2019-05-21T07:58:47.317Z,45.56
2019-05-21T08:01:17.061Z,45.41
2019-05-21T08:03:46.863Z,45.20
2019-05-21T08:06:16.295Z,44.42
2019-05-21T08:08:45.718Z,44.38
2019-05-21T08:11:15.170Z,43.92
2019-05-21T08:13:44.940Z,44.35
2019-05-21T08:16:14.703Z,44.39
2019-05-21T08:18:44.476Z,43.57
2019-05-21T08:21:14.101Z,44.22
2019-05-21T08:23:43.710Z,44.07
2019-05-21T08:26:13.195Z,43.94
2019-05-21T08:28:42.709Z,43.68
2019-05-21T08:31:12.185Z,43.15
2019-05-21T08:33:42.169Z,43.48
2019-05-21T08:36:11.834Z,44.03
2019-05-21T08:38:41.609Z,43.01
2019-05-21T08:41:11.242Z,42.93
2019-05-21T08:43:40.849Z,42.46
2019-05-21T08:46:10.387Z,41.87
2019-05-21T08:48:40.084Z,41.90
2019-05-21T08:51:09.845Z,42.14
2019-05-21T08:53:39.451Z,41.96
2019-05-21T08:56:09.248Z,41.37
2019-05-21T08:58:39.123Z,40.71
2019-05-21T09:01:08.672Z,39.95
2019-05-21T09:03:38.053Z,40.36
2019-05-21T09:06:07.838Z,40.75
2019-05-21T09:08:37.325Z,41.11
2019-05-21T09:11:06.895Z,40.54
2019-05-21T09:13:36.432Z,41.10
2019-05-21T09:16:06.172Z,40.05
2019-05-21T09:18:35.609Z,39.04
2019-05-21T09:21:05.306Z,37.72
2019-05-21T09:23:35.088Z,35.85
2019-05-21T09:26:05.015Z,35.36
2019-05-21T09:28:34.587Z,33.57
2019-05-21T09:31:04.315Z,31.90
2019-05-21T09:33:34.046Z,30.50
2019-05-21T09:36:03.709Z,28.72
2019-05-21T09:38:33.326Z,27.72
2019-05-21T09:41:03.052Z,25.91
2019-05-21T09:43:32.574Z,24.43
2019-05-21T09:46:02.151Z,22.97
2019-05-21T09:48:31.561Z,21.96
2019-05-21T09:51:01.366Z,20.19
2019-05-21T09:53:31.073Z,19.45
2019-05-21T09:56:19.696Z,18.15
2019-05-21T09:58:49.499Z,17.25
2019-05-21T10:01:28.219Z,16.85
2019-05-21T10:03:58.830Z,15.87
2019-05-21T10:06:28.566Z,16.16
2019-05-21T10:08:58.298Z,15.38
2019-05-21T10:11:27.790Z,14.98
2019-05-21T10:13:57.525Z,14.47
2019-05-21T10:16:26.958Z,14.67
2019-05-21T10:18:56.418Z,14.64
2019-05-21T10:21:26.349Z,14.80
2019-05-21T10:23:56.263Z,14.05
2019-05-21T10:26:25.946Z,14.10
2019-05-21T10:28:55.379Z,13.75
2019-05-21T10:31:25.076Z,13.97
2019-05-21T10:33:54.831Z,14.04
2019-05-21T10:36:24.696Z,15.28
2019-05-21T10:38:54.559Z,16.02
2019-05-21T10:41:24.109Z,15.61
2019-05-21T10:43:53.489Z,15.31
2019-05-21T10:46:23.337Z,16.52
2019-05-21T10:48:52.934Z,16.46
2019-05-21T10:51:22.657Z,16.53
2019-05-21T10:53:52.236Z,15.90
2019-05-21T10:56:21.745Z,15.42
2019-05-21T10:58:51.554Z,14.46
2019-05-21T11:01:46.171Z,14.13
2019-05-21T11:04:37.695Z,13.51
2019-05-21T11:07:08.833Z,12.96
2019-05-21T11:09:38.743Z,12.81
2019-05-21T11:12:08.368Z,12.64
2019-05-21T11:14:37.838Z,12.54
2019-05-21T11:17:10.204Z,12.24
2019-05-21T11:19:39.913Z,12.00
2019-05-21T11:22:09.734Z,12.13
2019-05-21T11:24:39.242Z,12.93
2019-05-21T11:27:08.937Z,12.66
2019-05-21T11:29:38.643Z,13.30
2019-05-21T11:32:08.474Z,14.45
2019-05-21T11:34:38.377Z,15.54
2019-05-21T11:37:08.316Z,14.55
2019-05-21T11:39:37.986Z,15.02
2019-05-21T11:42:07.689Z,15.69
2019-05-21T11:44:37.569Z,14.25
2019-05-21T11:47:07.204Z,14.41
2019-05-21T11:49:36.717Z,15.69
2019-05-21T11:52:06.269Z,17.17
2019-05-21T11:54:36.065Z,16.10
2019-05-21T11:57:05.752Z,16.47
2019-05-21T11:59:35.489Z,15.69
2019-05-21T12:02:07.449Z,15.29
2019-05-21T12:04:36.919Z,14.54
2019-05-21T12:07:06.442Z,14.13
2019-05-21T12:09:36.110Z,13.81
2019-05-21T12:12:05.861Z,13.54
2019-05-21T12:14:35.545Z,13.06
2019-05-21T12:17:05.277Z,13.04
2019-05-21T12:19:35.135Z,12.94
2019-05-21T12:22:04.984Z,12.99
2019-05-21T12:24:34.585Z,14.54
2019-05-21T12:27:04.764Z,16.71
2019-05-21T12:29:34.583Z,18.49
2019-05-21T12:32:04.009Z,19.82
2019-05-21T12:34:33.645Z,20.64
2019-05-21T12:37:03.113Z,21.28
2019-05-21T12:39:32.541Z,22.16
2019-05-21T12:42:02.181Z,22.56
2019-05-21T12:44:31.660Z,22.65
2019-05-21T12:47:01.354Z,23.68
2019-05-21T12:49:31.013Z,24.35
2019-05-21T12:52:00.442Z,25.23
2019-05-21T12:54:29.945Z,25.57
2019-05-21T12:56:59.460Z,24.89
2019-05-21T12:59:29.080Z,24.02
2019-05-21T13:01:58.760Z,22.39
2019-05-21T13:04:28.330Z,21.05
2019-05-21T13:06:57.772Z,21.98
2019-05-21T13:09:33.023Z,22.15
2019-05-21T13:11:58.462Z,24.36
2019-05-21T13:14:28.269Z,24.29
2019-05-21T13:16:58.081Z,25.11
2019-05-21T13:19:28.082Z,26.27
2019-05-21T13:21:57.513Z,27.92
2019-05-21T13:24:26.971Z,27.11
2019-05-21T13:26:58.283Z,27.46
2019-05-21T13:29:28.071Z,28.05
2019-05-21T13:31:57.482Z,28.33
2019-05-21T13:34:27.089Z,27.75
2019-05-21T13:36:56.630Z,25.03
2019-05-21T13:39:26.544Z,23.77
2019-05-21T13:41:56.153Z,24.22
2019-05-21T13:44:25.579Z,24.73
2019-05-21T13:46:55.266Z,26.03
2019-05-21T13:49:24.932Z,26.65
2019-05-21T13:51:54.402Z,26.52
2019-05-21T13:54:23.780Z,26.13
2019-05-21T13:56:53.322Z,23.17
2019-05-21T13:59:22.753Z,22.65
2019-05-21T14:01:52.403Z,22.80
2019-05-21T14:04:22.291Z,23.70
2019-05-21T14:06:51.700Z,24.08
2019-05-21T14:09:21.250Z,24.78
2019-05-21T14:11:50.785Z,25.82
2019-05-21T14:14:20.606Z,26.42
2019-05-21T14:16:50.141Z,26.76
2019-05-21T14:19:19.755Z,27.10
2019-05-21T14:21:49.413Z,27.86
2019-05-21T14:24:20.514Z,27.88
2019-05-21T14:26:50.223Z,27.75
2019-05-21T14:29:19.702Z,27.56
2019-05-21T14:31:49.403Z,26.94
2019-05-21T14:34:19.111Z,26.57
2019-05-21T14:36:48.612Z,26.63
2019-05-21T14:39:18.439Z,27.47
2019-05-21T14:41:48.068Z,27.42
2019-05-21T14:44:17.745Z,27.54
2019-05-21T14:46:47.513Z,26.61
2019-05-21T14:49:17.318Z,27.94
2019-05-21T14:51:46.814Z,28.30
2019-05-21T14:54:26.333Z,28.30
2019-05-21T14:56:48.118Z,28.28
2019-05-21T14:59:18.047Z,28.27
2019-05-21T15:01:47.678Z,28.90
2019-05-21T15:04:17.273Z,29.48
2019-05-21T15:06:47.083Z,29.79
2019-05-21T15:09:16.594Z,29.81
2019-05-21T15:11:46.709Z,29.83
2019-05-21T15:14:16.309Z,29.66
2019-05-21T15:16:45.784Z,29.84
2019-05-21T15:19:15.752Z,28.99
2019-05-21T15:21:49.279Z,29.36
2019-05-21T15:24:18.666Z,30.47
2019-05-21T15:26:48.427Z,30.10
2019-05-21T15:29:17.923Z,29.77
2019-05-21T15:31:47.803Z,29.62
2019-05-21T15:34:17.199Z,29.47
2019-05-21T15:36:46.941Z,29.82
2019-05-21T15:39:16.712Z,29.79
2019-05-21T15:41:46.503Z,30.08
2019-05-21T15:44:16.021Z,29.86
2019-05-21T15:46:50.112Z,30.29
2019-05-21T15:49:17.024Z,31.22
2019-05-21T15:51:46.584Z,31.08
2019-05-21T15:54:16.186Z,29.93
2019-05-21T15:56:45.615Z,30.85
2019-05-21T15:59:15.263Z,30.37
2019-05-21T16:01:44.919Z,30.44
2019-05-21T16:04:16.565Z,30.54
2019-05-21T16:06:45.691Z,31.31
2019-05-21T16:09:15.386Z,30.89
2019-05-21T16:11:45.177Z,28.98
2019-05-21T16:14:14.991Z,29.32
2019-05-21T16:16:44.514Z,29.17
2019-05-21T16:19:14.087Z,28.83
2019-05-21T16:21:43.518Z,28.71
2019-05-21T16:24:13.218Z,29.16
2019-05-21T16:26:42.672Z,29.04
2019-05-21T16:29:12.117Z,29.41
2019-05-21T16:31:42.060Z,29.45
2019-05-21T16:34:11.791Z,29.16
2019-05-21T16:36:41.219Z,29.39
2019-05-21T16:39:10.770Z,29.73
2019-05-21T16:41:44.845Z,30.82
2019-05-21T16:44:11.485Z,30.26
2019-05-21T16:46:42.682Z,31.27
2019-05-21T16:49:12.855Z,30.56
2019-05-21T16:51:43.506Z,30.35
2019-05-21T16:54:13.276Z,30.99
2019-05-21T16:56:42.904Z,30.88
2019-05-21T16:59:12.727Z,31.00
2019-05-21T17:01:42.284Z,31.88
2019-05-21T17:04:11.791Z,32.42
2019-05-21T17:06:41.434Z,33.18
2019-05-21T17:09:13.379Z,31.97
2019-05-21T17:11:42.831Z,33.24
2019-05-21T17:14:12.262Z,34.17
2019-05-21T17:16:42.018Z,33.79
2019-05-21T17:19:11.677Z,31.99
2019-05-21T17:21:41.429Z,32.02
2019-05-21T17:24:11.133Z,31.36
2019-05-21T17:26:43.013Z,31.85
2019-05-21T17:29:12.173Z,31.75
2019-05-21T17:31:41.790Z,32.64
2019-05-21T17:34:11.670Z,32.89
2019-05-21T17:36:41.108Z,33.11
2019-05-21T17:39:10.594Z,32.79
2019-05-21T17:41:40.311Z,33.30
2019-05-21T17:44:10.145Z,33.69
2019-05-21T17:46:39.961Z,34.46
2019-05-21T17:49:09.371Z,34.50
2019-05-21T17:51:39.057Z,35.94
2019-05-21T17:54:08.862Z,37.62
2019-05-21T17:56:38.599Z,37.25
2019-05-21T17:59:08.129Z,37.40
2019-05-21T18:01:38.046Z,38.01
2019-05-21T18:04:08.374Z,38.02
2019-05-21T18:06:38.073Z,39.24
2019-05-21T18:09:11.166Z,40.18
2019-05-21T18:11:41.089Z,39.90
2019-05-21T18:14:10.995Z,40.18
2019-05-21T18:16:40.822Z,40.23
2019-05-21T18:19:10.511Z,40.13
2019-05-21T18:21:41.247Z,40.84
2019-05-21T18:24:11.371Z,40.23
2019-05-21T18:26:41.203Z,40.26
2019-05-21T18:29:10.970Z,40.70
2019-05-21T18:31:40.795Z,40.14
2019-05-21T18:34:10.194Z,40.38
2019-05-21T18:36:39.858Z,39.26
2019-05-21T18:39:09.665Z,38.40
2019-05-21T18:41:39.438Z,38.05
2019-05-21T18:44:09.446Z,38.00
2019-05-21T18:46:39.220Z,37.44
2019-05-21T18:49:08.708Z,37.18
2019-05-21T18:51:38.133Z,37.56
2019-05-21T18:54:07.610Z,37.35
2019-05-21T18:56:37.289Z,37.10
2019-05-21T18:59:07.297Z,37.24
2019-05-21T19:01:38.529Z,37.34
2019-05-21T19:04:08.827Z,37.33
2019-05-21T19:06:38.700Z,37.70
2019-05-21T19:09:09.532Z,38.07
2019-05-21T19:11:38.965Z,38.42
2019-05-21T19:14:09.360Z,38.85
2019-05-21T19:16:39.073Z,39.68
2019-05-21T19:19:08.602Z,39.46
2019-05-21T19:21:38.293Z,39.26
2019-05-21T19:24:07.989Z,39.45
2019-05-21T19:26:37.533Z,39.65
2019-05-21T19:29:08.001Z,39.84
2019-05-21T19:31:37.735Z,39.85
2019-05-21T19:34:07.546Z,40.29
2019-05-21T19:36:37.031Z,40.42
2019-05-21T19:39:09.240Z,39.91
2019-05-21T19:41:38.922Z,39.87
2019-05-21T19:44:08.313Z,39.90
2019-05-21T19:46:38.054Z,39.92
2019-05-21T19:49:07.769Z,39.80
2019-05-21T19:51:37.547Z,39.86
2019-05-21T19:54:06.937Z,39.99
2019-05-21T19:56:36.781Z,40.17
2019-05-21T19:59:06.842Z,40.25
2019-05-21T20:01:36.331Z,40.44
2019-05-21T20:04:06.798Z,40.58
2019-05-21T20:06:37.298Z,40.71
2019-05-21T20:09:11.215Z,41.33
2019-05-21T20:11:40.781Z,42.54
2019-05-21T20:14:10.985Z,43.03
2019-05-21T20:16:40.793Z,43.22
2019-05-21T20:19:12.950Z,43.74
2019-05-21T20:21:43.357Z,43.78
2019-05-21T20:24:13.494Z,43.77
2019-05-21T20:26:43.510Z,43.98
2019-05-21T20:29:13.305Z,44.60
2019-05-21T20:31:43.927Z,44.83
2019-05-21T20:34:13.825Z,45.11
2019-05-21T20:36:43.557Z,45.83
2019-05-21T20:39:15.409Z,46.65
2019-05-21T20:41:45.583Z,47.34
2019-05-21T20:44:17.858Z,47.75
2019-05-21T20:46:48.184Z,47.97
2019-05-21T20:49:17.825Z,48.13
2019-05-21T20:51:48.068Z,48.63
2019-05-21T20:54:19.491Z,48.48
2019-05-21T20:56:49.585Z,49.44
2019-05-21T20:59:19.145Z,49.00
2019-05-21T21:01:48.869Z,48.66
2019-05-21T21:04:18.742Z,49.15
2019-05-21T21:06:48.541Z,49.42
2019-05-21T21:09:18.451Z,49.13
2019-05-21T21:11:48.085Z,49.07
2019-05-21T21:14:19.739Z,49.31
2019-05-21T21:16:49.638Z,50.00
2019-05-21T21:19:19.338Z,50.12
2019-05-21T21:21:49.079Z,50.50
2019-05-21T21:24:18.641Z,50.61
2019-05-21T21:26:48.754Z,50.45
2019-05-21T21:29:18.475Z,50.96
2019-05-21T21:31:48.063Z,50.61
2019-05-21T21:34:17.638Z,50.37
2019-05-21T21:36:47.567Z,50.96
2019-05-21T21:39:18.069Z,51.35
2019-05-21T21:41:48.366Z,51.39
2019-05-21T21:44:33.188Z,51.42
2019-05-21T21:46:51.032Z,51.42
2019-05-21T21:49:22.972Z,51.66
2019-05-21T21:51:52.562Z,51.97
2019-05-21T21:54:22.750Z,51.86
2019-05-21T21:56:52.617Z,52.08
2019-05-21T21:59:22.302Z,51.85
2019-05-21T22:01:55.888Z,51.96
2019-05-21T22:04:34.789Z,52.41
2019-05-21T22:07:05.314Z,52.64
2019-05-21T22:09:37.791Z,52.97
2019-05-21T22:12:10.372Z,53.46
2019-05-21T22:14:50.500Z,53.41
2019-05-21T22:17:15.706Z,53.40
2019-05-21T22:19:45.269Z,52.90
2019-05-21T22:22:15.177Z,53.18
2019-05-21T22:24:44.944Z,53.51
2019-05-21T22:27:14.527Z,53.82
2019-05-21T22:29:44.010Z,54.46
2019-05-21T22:32:16.568Z,53.90
2019-05-21T22:34:44.768Z,53.56
2019-05-21T22:37:16.079Z,53.91
2019-05-21T22:39:47.829Z,54.41
2019-05-21T22:42:17.721Z,54.02
2019-05-21T22:44:47.938Z,53.76
2019-05-21T22:47:17.389Z,54.09
2019-05-21T22:49:47.217Z,53.80
2019-05-21T22:52:16.919Z,53.79
2019-05-21T22:54:46.415Z,53.36
2019-05-21T22:57:15.979Z,54.01
2019-05-21T22:59:46.368Z,54.41
2019-05-21T23:02:21.320Z,53.85
2019-05-21T23:04:50.985Z,53.60
2019-05-21T23:07:20.754Z,53.39
2019-05-21T23:09:50.524Z,53.71
2019-05-21T23:12:20.220Z,53.46
2019-05-21T23:14:50.317Z,54.05
2019-05-21T23:17:20.023Z,53.94
2019-05-21T23:19:50.826Z,54.11
2019-05-21T23:22:24.095Z,54.43
2019-05-21T23:24:53.975Z,53.88
2019-05-21T23:27:24.670Z,53.74
2019-05-21T23:29:54.582Z,53.88
2019-05-21T23:32:24.837Z,53.89
2019-05-21T23:34:55.150Z,53.07
2019-05-21T23:37:25.411Z,52.97
2019-05-21T23:39:55.691Z,53.46
2019-05-21T23:42:30.209Z,53.68
2019-05-21T23:44:57.655Z,53.87
2019-05-21T23:47:28.093Z,53.92
2019-05-21T23:49:57.631Z,53.87
2019-05-21T23:52:27.525Z,54.03
2019-05-21T23:54:57.839Z,53.45
2019-05-21T23:57:31.948Z,53.68
